Main page
METAR-TAF:

METAR-TAF

Airports :

Rijeka, Croatia

Rijeka Airport

latitude: 45-13N, longitude: 014-35E, elevation: 85 m

Current weather observation

The report was made 10 minutes ago, at 22:30 UTC
Wind 1 kt from variable directions
Temperature 18°C
Humidity 73%
Pressure 1017 hPa
Visibility 10 km or more
Few clouds at a height of 7500 ft

METAR: LDRI 232230Z VRB01KT 9999 FEW075 18/13 Q1017

Time: 00:40 (22:40 UTC)

Forecast

The report was made 5 hours and 15 minutes ago, at 17:25 UTC
Forecast valid from 23 at 18 UTC to 24 at 18 UTC
Wind 2 kt from variable directions
Visibility 10 km or more
no clouds below 1500 m and no cumulonimbus
Probability 40% :
Temporary
from 24 at 10 UTC to 24 at 18 UTC
Few clouds at a height of 4000 ft, Cumulonimbus.
Scattered clouds at a height of 4500 ft
thunderstorm
Temporary
from 24 at 11 UTC to 24 at 18 UTC
Wind 8 kt from the Northwest

TAF: LDRI 231725Z 2318/2418 VRB02KT CAVOK TX24/2412Z TN16/2404Z PROB40 TEMPO 2410/2418 TS FEW040CB SCT045 TEMPO 2411/2418 32008KT

Weather observations and forecasts of more than 4000 airports (METAR and TAF reports).

The available stations are represented by yellow and red dots on the map.

Hover mouse over dot to see the name of the station.

Then click to see weather observations and forecasts.

To change the map : click on the green buttons with a black cross to zoom in, on the green button with a dash to zoom out, or on the green arrows for adjacent maps.


METAR-TAF: